Time;durP1;ratioP1;P1;durP2;ratioP2;P2;SDS_P1;SDS_P2;PMS_P1;PMS_P2;Temp;Humidity;BMP_temperature;BMP_pressure;BME280_temperature;BME280_humidity;BME280_pressure;Samples;Min_cycle;Max_cycle;Signal;HPM_P1;HPM_P2
2022/03/05 00:01:33;;;;;;;;;;;;;;;-0.67;74.34;97229.13;109747;1250;60537;-63
2022/03/05 00:04:03;;;;;;;39.00;22.30;;;;;;;-0.67;75.15;97232.21;109702;1250;72570;-62
2022/03/05 00:06:33;;;;;;;40.20;23.20;;;;;;;-0.69;75.82;97232.27;109775;1249;67858;-63
2022/03/05 00:09:03;;;;;;;36.50;22.40;;;;;;;-0.71;77.38;97229.42;109764;1249;68510;-65
2022/03/05 00:11:33;;;;;;;33.60;20.80;;;;;;;-0.74;78.09;97230.71;109841;1250;60488;-63
2022/03/05 00:14:03;;;;;;;23.80;15.80;;;;;;;-0.73;76.54;97227.27;109949;1249;60498;-63
2022/03/05 00:16:33;;;;;;;24.20;15.60;;;;;;;-0.71;75.71;97228.40;109743;1250;72357;-63
2022/03/05 00:19:03;;;;;;;24.60;16.90;;;;;;;-0.69;75.49;97226.45;109818;1250;68597;-64
2022/03/05 00:21:33;;;;;;;20.00;13.50;;;;;;;-0.68;75.82;97225.04;109792;1250;68491;-64
2022/03/05 00:24:04;;;;;;;19.80;11.70;;;;;;;-0.65;75.52;97226.99;109845;1250;60544;-63
2022/03/05 00:26:34;;;;;;;;;;;;;;;-0.62;75.36;97223.46;109868;1249;60492;-63
2022/03/05 00:29:05;;;;;;;42.80;24.90;;;;;;;-0.58;74.31;97223.88;109862;1250;71614;-63
2022/03/05 00:31:34;;;;;;;;;;;;;;;-0.56;74.67;97226.03;109614;1250;68482;-64
2022/03/05 00:34:04;;;;;;;37.60;22.40;;;;;;;-0.56;75.28;97226.36;109709;1250;68740;-64
2022/03/05 00:36:34;;;;;;;28.70;17.40;;;;;;;-0.56;75.66;97225.67;109688;1250;60527;-64
2022/03/05 00:39:04;;;;;;;25.10;17.00;;;;;;;-0.54;75.00;97221.50;109735;1250;60453;-62
2022/03/05 00:41:34;;;;;;;25.10;16.70;;;;;;;-0.50;74.65;97220.88;109828;1249;71540;-60
2022/03/05 00:44:03;;;;;;;19.80;13.60;;;;;;;-0.47;74.09;97216.33;109499;1250;68093;-61
2022/03/05 00:46:33;;;;;;;25.50;16.20;;;;;;;-0.44;74.63;97220.36;109857;1249;69462;-62
2022/03/05 00:49:03;;;;;;;24.90;15.40;;;;;;;-0.41;74.12;97220.27;109768;1250;60491;-61
2022/03/05 00:51:33;;;;;;;22.30;15.20;;;;;;;-0.38;73.94;97220.67;109768;1250;60500;-64
2022/03/05 00:54:03;;;;;;;44.10;25.50;;;;;;;-0.36;75.86;97221.31;109728;1250;72168;-63
2022/03/05 00:56:33;;;;;;;33.10;20.40;;;;;;;-0.39;78.33;97226.36;109642;1250;67775;-64
2022/03/05 00:59:03;;;;;;;;;;;;;;;-0.38;76.80;97225.27;109789;1250;69229;-65
2022/03/05 01:01:33;;;;;;;25.60;15.50;;;;;;;-0.35;75.97;97220.74;109740;1250;60496;-64
2022/03/05 01:04:03;;;;;;;43.00;24.80;;;;;;;-0.32;75.41;97224.09;109943;1250;60477;-61
2022/03/05 01:06:34;;;;;;;34.40;19.60;;;;;;;-0.31;76.82;97219.95;109781;1250;72261;-61
2022/03/05 01:09:05;;;;;;;33.10;20.70;;;;;;;-0.28;75.03;97222.58;109820;1250;67754;-63
2022/03/05 01:11:34;;;;;;;42.30;24.90;;;;;;;-0.25;74.42;97226.42;109849;1250;69423;-62
2022/03/05 01:14:04;;;;;;;50.40;30.80;;;;;;;-0.23;74.36;97226.35;109848;1250;60555;-61
2022/03/05 01:16:35;;;;;;;45.90;30.70;;;;;;;-0.22;74.26;97224.45;109931;1250;60497;-62
2022/03/05 01:19:05;;;;;;;46.60;28.30;;;;;;;-0.22;74.21;97225.66;109878;1250;71235;-64
2022/03/05 01:21:36;;;;;;;48.10;28.80;;;;;;;-0.23;74.50;97225.14;110105;1249;68674;-65
2022/03/05 01:24:06;;;;;;;43.90;27.30;;;;;;;-0.22;74.59;97225.30;109728;1250;68390;-63
2022/03/05 01:26:35;;;;;;;;;;;;;;;-0.24;74.69;97224.82;109749;1250;60533;-65
2022/03/05 01:29:05;;;;;;;38.40;21.90;;;;;;;-0.23;74.53;97220.54;109793;1250;60590;-63
2022/03/05 01:31:36;;;;;;;39.80;25.50;;;;;;;-0.23;74.20;97222.59;109756;1250;72328;-63
2022/03/05 01:34:06;;;;;;;38.40;25.10;;;;;;;-0.24;74.46;97220.38;109846;1249;67814;-61
2022/03/05 01:36:37;;;;;;;37.30;22.70;;;;;;;-0.23;74.83;97219.52;109882;1250;68641;-64
2022/03/05 01:39:07;;;;;;;31.60;20.80;;;;;;;-0.22;74.70;97219.48;110032;1248;60507;-62
2022/03/05 01:41:37;;;;;;;53.00;31.10;;;;;;;-0.22;76.00;97220.33;109866;1249;60447;-65
2022/03/05 01:44:08;;;;;;;52.80;31.50;;;;;;;-0.22;77.00;97223.94;109712;1250;72367;-60
2022/03/05 01:46:39;;;;;;;63.20;36.50;;;;;;;-0.22;76.76;97219.64;109968;1248;67917;-62
2022/03/05 01:49:11;;;;;;;60.70;34.30;;;;;;;-0.21;78.34;97217.20;109955;1249;68454;-63
2022/03/05 01:51:42;;;;;;;56.70;33.20;;;;;;;-0.21;78.93;97216.02;110034;1249;60492;-60
2022/03/05 01:54:13;;;;;;;61.30;36.00;;;;;;;-0.20;79.39;97217.34;110038;1249;60492;-61
2022/03/05 01:56:43;;;;;;;45.40;26.80;;;;;;;-0.19;79.81;97220.40;110020;1249;72300;-65
2022/03/05 01:59:12;;;;;;;;;;;;;;;-0.17;78.11;97217.94;110041;1249;68528;-63
2022/03/05 02:01:42;;;;;;;32.30;21.00;;;;;;;-0.14;76.89;97222.46;109983;1250;68746;-63
2022/03/05 02:04:13;;;;;;;37.60;24.20;;;;;;;-0.14;76.94;97224.34;110038;1249;60564;-64
2022/03/05 02:06:43;;;;;;;32.50;22.60;;;;;;;-0.15;76.59;97224.02;109999;1250;60554;-65
2022/03/05 02:09:12;;;;;;;29.60;19.50;;;;;;;-0.14;76.49;97227.78;109911;1249;72287;-66
2022/03/05 02:11:42;;;;;;;21.70;14.00;;;;;;;-0.12;76.00;97233.89;109668;1251;68051;-64
2022/03/05 02:14:17;;;;;;;33.40;22.50;;;;;;;-0.10;75.33;97236.70;109744;1250;69454;-66
2022/03/05 02:16:47;;;;;;;36.20;24.90;;;;;;;-0.09;75.26;97233.27;109718;1250;60496;-64
2022/03/05 02:19:17;;;;;;;34.70;23.00;;;;;;;-0.09;75.46;97234.11;109674;1250;60511;-64
2022/03/05 02:21:47;;;;;;;30.50;20.80;;;;;;;-0.08;75.30;97232.85;109719;1250;71729;-63
2022/03/05 02:24:31;;;;;;;;;;;;;;;-0.08;76.21;97230.29;109714;1250;67519;-61
2022/03/05 02:27:03;;;;;;;51.00;30.10;;;;;;;-0.10;78.68;97234.48;109722;1250;68694;-63
2022/03/05 02:29:34;;;;;;;30.70;20.00;;;;;;;-0.12;78.10;97235.23;109681;1250;60583;-63
2022/03/05 02:32:05;;;;;;;49.90;30.10;;;;;;;-0.11;77.04;97236.05;109668;1252;60871;-61
2022/03/05 02:34:35;;;;;;;51.50;31.10;;;;;;;-0.12;77.44;97240.36;109738;1250;72333;-64
2022/03/05 02:37:05;;;;;;;36.10;22.10;;;;;;;-0.11;76.66;97240.00;109740;1250;68065;-62
2022/03/05 02:39:36;;;;;;;28.70;21.40;;;;;;;-0.09;76.02;97237.36;109824;1250;69529;-64
2022/03/05 02:42:05;;;;;;;27.70;20.60;;;;;;;-0.08;75.81;97238.70;109805;1249;60510;-61
2022/03/05 02:44:35;;;;;;;35.50;23.00;;;;;;;-0.06;76.10;97240.34;109243;1250;655913;-65
2022/03/05 02:47:06;;;;;;;30.90;21.10;;;;;;;-0.03;75.31;97240.74;109746;1252;71389;-61
2022/03/05 02:49:36;;;;;;;;;;;;;;;-0.01;75.13;97241.90;109819;1250;67160;-64
2022/03/05 02:52:06;;;;;;;44.50;28.50;;;;;;;-0.03;76.83;97240.23;109852;1250;69380;-66
2022/03/05 02:54:37;;;;;;;46.90;28.50;;;;;;;-0.07;77.66;97247.39;109817;1250;60620;-62
2022/03/05 02:57:07;;;;;;;42.80;26.40;;;;;;;-0.09;77.40;97245.09;109843;1249;60557;-62
2022/03/05 02:59:37;;;;;;;31.70;22.50;;;;;;;-0.11;77.03;97245.29;109761;1250;72305;-61
2022/03/05 03:02:07;;;;;;;;;;;;;;;-0.10;76.31;97245.43;109754;1250;67813;-61
2022/03/05 03:04:37;;;;;;;30.00;20.60;;;;;;;-0.07;76.02;97246.38;109747;1250;69413;-62
2022/03/05 03:07:08;;;;;;;26.40;18.40;;;;;;;-0.06;75.66;97247.53;109602;1250;60616;-61
2022/03/05 03:09:38;;;;;;;31.10;19.70;;;;;;;-0.04;75.27;97247.83;109750;1250;60474;-62
2022/03/05 03:12:08;;;;;;;24.70;16.80;;;;;;;-0.02;75.10;97244.14;109784;1250;71607;-66
2022/03/05 03:14:38;;;;;;;48.70;30.40;;;;;;;-0.01;75.29;97249.44;109775;1250;67642;-64
2022/03/05 03:17:09;;;;;;;29.70;18.90;;;;;;;-0.03;76.23;97250.02;109636;1250;70213;-64
2022/03/05 03:19:39;;;;;;;30.70;20.60;;;;;;;-0.04;75.97;97249.02;109981;1249;60554;-64
2022/03/05 03:22:10;;;;;;;40.40;27.50;;;;;;;-0.05;76.49;97248.54;109689;1250;60534;-62
2022/03/05 03:24:41;;;;;;;29.40;17.90;;;;;;;-0.05;76.85;97248.88;109801;1250;72540;-63
2022/03/05 03:27:11;;;;;;;30.90;21.90;;;;;;;-0.04;75.86;97250.38;109786;1250;67818;-62
2022/03/05 03:29:41;;;;;;;31.50;19.00;;;;;;;-0.03;75.66;97251.89;109811;1250;69411;-61
2022/03/05 03:32:11;;;;;;;27.30;18.40;;;;;;;-0.03;75.82;97249.48;109627;1250;60469;-62
2022/03/05 03:34:41;;;;;;;27.30;19.20;;;;;;;-0.02;75.16;97252.37;109585;1250;60494;-61
2022/03/05 03:37:12;;;;;;;54.10;33.60;;;;;;;-0.00;75.18;97250.61;109831;1250;72162;-62
2022/03/05 03:39:41;;;;;;;54.70;33.10;;;;;;;-0.02;75.99;97251.69;109600;1250;68589;-61
2022/03/05 03:42:11;;;;;;;32.60;21.00;;;;;;;-0.03;76.34;97245.91;109523;1250;69349;-62
2022/03/05 03:44:41;;;;;;;;;;;;;;;-0.03;75.42;97246.08;109738;1250;60549;-64
2022/03/05 03:47:12;;;;;;;;;;;;;;;-0.04;75.47;97248.48;109699;1251;60495;-65
2022/03/05 03:49:42;;;;;;;59.10;34.10;;;;;;;-0.07;77.63;97248.59;110008;1249;72332;-64
2022/03/05 03:52:13;;;;;;;44.00;27.80;;;;;;;-0.14;79.99;97248.85;109816;1250;68579;-62
2022/03/05 03:54:44;;;;;;;35.80;21.80;;;;;;;-0.16;79.35;97250.97;109794;1250;69421;-64
2022/03/05 03:57:15;;;;;;;51.80;30.50;;;;;;;-0.17;78.24;97250.84;109913;1250;60558;-64
2022/03/05 03:59:46;;;;;;;59.30;34.00;;;;;;;-0.21;79.70;97250.42;109771;1250;60522;-63
2022/03/05 04:02:17;;;;;;;63.20;35.60;;;;;;;-0.34;80.94;97258.04;110048;1250;72333;-62
2022/03/05 04:04:48;;;;;;;55.50;33.40;;;;;;;-0.43;81.78;97253.36;110064;1250;68279;-65
2022/03/05 04:10:07;;;;;;;57.60;33.10;;;;;;;-0.50;82.34;97262.31;109930;1250;60508;-66
2022/03/05 04:12:37;;;;;;;58.70;32.50;;;;;;;-0.55;82.68;97264.00;109861;1250;60579;-64
2022/03/05 04:15:07;;;;;;;54.30;32.20;;;;;;;-0.57;82.91;97266.98;109818;1250;71385;-64
2022/03/05 04:17:39;;;;;;;53.20;30.60;;;;;;;-0.58;82.62;97269.56;109851;1249;67721;-62
2022/03/05 04:20:10;;;;;;;50.00;29.20;;;;;;;-0.57;82.74;97276.05;109630;1250;68727;-64
2022/03/05 04:22:40;;;;;;;52.00;31.30;;;;;;;-0.60;82.98;97275.29;109814;1250;60551;-61
2022/03/05 04:25:10;;;;;;;41.60;26.10;;;;;;;-0.59;82.56;97277.99;109810;1250;60483;-61
2022/03/05 04:27:40;;;;;;;38.60;22.60;;;;;;;-0.56;82.07;97278.41;109865;1250;72206;-62
2022/03/05 04:30:10;;;;;;;;;;;;;;;-0.51;81.19;97282.03;109885;1250;68444;-62
2022/03/05 04:32:41;;;;;;;49.10;26.60;;;;;;;-0.50;81.96;97285.60;109729;1250;68534;-65
2022/03/05 04:35:12;;;;;;;45.30;27.90;;;;;;;-0.48;81.63;97285.73;109702;1250;60554;-63
2022/03/05 04:37:41;;;;;;;50.80;27.90;;;;;;;-0.53;82.22;97287.92;109992;1249;60461;-64
2022/03/05 04:40:11;;;;;;;35.50;23.20;;;;;;;-0.53;82.05;97292.36;109864;1250;71828;-63
2022/03/05 04:42:41;;;;;;;40.50;25.10;;;;;;;-0.49;81.37;97294.16;109796;1250;67687;-65
2022/03/05 04:45:11;;;;;;;;;;;;;;;-0.48;81.46;97296.70;109736;1252;68715;-64
2022/03/05 04:47:41;;;;;;;45.20;27.30;;;;;;;-0.58;81.73;97302.10;109912;1249;60481;-62
2022/03/05 04:50:12;;;;;;;48.30;28.50;;;;;;;-0.62;81.83;97306.14;110024;1248;60436;-62
2022/03/05 04:52:42;;;;;;;49.10;27.80;;;;;;;-0.70;82.22;97304.53;109945;1250;72386;-61
2022/03/05 04:55:11;;;;;;;37.50;21.80;;;;;;;-0.73;81.67;97308.04;109916;1250;67874;-60
2022/03/05 04:57:41;;;;;;;42.50;24.60;;;;;;;-0.72;80.92;97310.20;109770;1250;67993;-62
2022/03/05 05:00:12;;;;;;;43.50;25.80;;;;;;;-0.71;80.70;97313.80;109930;1250;60560;-60
2022/03/05 05:02:42;;;;;;;47.90;26.50;;;;;;;-0.69;80.29;97317.33;109965;1249;60474;-61
2022/03/05 05:05:11;;;;;;;51.30;25.70;;;;;;;-0.71;80.22;97318.90;109796;1249;72464;-65
2022/03/05 05:07:41;;;;;;;45.20;25.70;;;;;;;-0.70;79.96;97321.29;110029;1248;68508;-64
2022/03/05 05:10:11;;;;;;;45.10;26.00;;;;;;;-0.69;80.15;97319.55;109732;1250;68483;-64
2022/03/05 05:12:40;;;;;;;45.50;25.80;;;;;;;-0.65;80.15;97326.62;109820;1250;60437;-61
2022/03/05 05:15:10;;;;;;;48.80;28.80;;;;;;;-0.70;80.82;97325.91;109970;1249;60556;-62
2022/03/05 05:17:39;;;;;;;51.30;28.70;;;;;;;-0.69;81.10;97325.04;110019;1249;71402;-61
2022/03/05 05:20:11;;;;;;;48.40;26.50;;;;;;;-0.71;81.23;97326.28;109952;1250;67946;-64
2022/03/05 05:22:41;;;;;;;49.30;26.60;;;;;;;-0.69;81.08;97327.08;109826;1250;69431;-63
2022/03/05 05:25:10;;;;;;;46.20;26.10;;;;;;;-0.71;81.19;97331.95;109816;1250;60470;-61
2022/03/05 05:27:40;;;;;;;47.60;25.90;;;;;;;-0.74;80.92;97331.17;109696;1250;60441;-62
2022/03/05 05:30:10;;;;;;;39.10;23.00;;;;;;;-0.74;80.85;97332.86;109744;1250;72180;-61
2022/03/05 05:32:39;;;;;;;56.60;29.20;;;;;;;-0.76;80.91;97332.23;109703;1250;67953;-58
2022/03/05 05:35:09;;;;;;;54.80;29.10;;;;;;;-0.81;81.12;97334.10;109734;1250;68628;-63
2022/03/05 05:37:39;;;;;;;48.40;27.10;;;;;;;-0.82;81.31;97337.37;109757;1250;60474;-64
2022/03/05 05:40:09;;;;;;;52.70;30.60;;;;;;;-0.84;81.16;97338.45;110008;1250;60487;-65
2022/03/05 05:42:39;;;;;;;52.50;29.60;;;;;;;-0.82;80.96;97339.95;109770;1248;72331;-63
2022/03/05 05:45:09;;;;;;;52.60;29.50;;;;;;;-0.79;81.50;97340.70;109870;1250;68653;-62
2022/03/05 05:47:38;;;;;;;49.80;26.40;;;;;;;-0.79;81.61;97343.46;109618;1253;69239;-63
2022/03/05 05:50:08;;;;;;;58.70;31.40;;;;;;;-0.78;81.49;97345.66;109997;1250;60542;-63
2022/03/05 05:52:39;;;;;;;66.40;34.10;;;;;;;-0.72;80.82;97346.70;109830;1250;60541;-63
2022/03/05 05:55:08;;;;;;;107.00;51.10;;;;;;;-0.72;80.68;97349.25;109860;1250;71625;-61
2022/03/05 05:57:37;;;;;;;77.70;37.90;;;;;;;-0.75;81.06;97352.40;109739;1250;68596;-64
2022/03/05 06:00:08;;;;;;;70.50;35.70;;;;;;;-0.74;80.69;97352.55;109628;1250;69989;-63
2022/03/05 06:02:42;;;;;;;55.10;29.70;;;;;;;-0.80;80.88;97359.56;109827;1250;60561;-64
2022/03/05 06:05:11;;;;;;;56.20;29.90;;;;;;;-0.76;80.92;97359.80;109642;1250;60524;-63
2022/03/05 06:07:41;;;;;;;65.20;35.70;;;;;;;-0.81;80.32;97360.45;109997;1249;72173;-64
2022/03/05 06:10:10;;;;;;;52.40;28.10;;;;;;;-0.74;80.29;97360.27;109939;1249;68596;-65
2022/03/05 06:12:40;;;;;;;50.00;28.40;;;;;;;-0.68;79.77;97363.68;109988;1250;68657;-64
2022/03/05 06:15:10;;;;;;;;;;;;;;;-0.71;79.18;97361.20;109835;1250;60585;-62
2022/03/05 06:17:43;;;;;;;43.30;23.50;;;;;;;-0.70;79.63;97362.73;109803;1250;60515;-64
2022/03/05 06:20:13;;;;;;;36.10;19.40;;;;;;;-0.58;78.92;97363.37;109907;1249;70911;-64
2022/03/05 06:22:42;;;;;;;52.80;26.20;;;;;;;-0.48;78.45;97368.23;109756;1250;69210;-63
2022/03/05 06:25:12;;;;;;;46.70;26.90;;;;;;;-0.48;77.57;97367.73;109870;1250;68900;-62
2022/03/05 06:27:41;;;;;;;50.50;26.80;;;;;;;-0.53;77.17;97368.38;109921;1250;60491;-63
2022/03/05 06:30:12;;;;;;;42.20;24.00;;;;;;;-0.45;77.08;97368.84;109900;1250;60503;-61
2022/03/05 06:32:41;;;;;;;48.90;26.50;;;;;;;-0.40;77.33;97373.65;109954;1249;72592;-66
2022/03/05 06:35:11;;;;;;;51.20;29.20;;;;;;;-0.40;76.74;97378.27;109700;1250;67827;-62
2022/03/05 06:37:41;;;;;;;53.00;28.60;;;;;;;-0.37;76.18;97380.59;109838;1250;67828;-62
2022/03/05 06:40:11;;;;;;;49.70;26.20;;;;;;;-0.38;76.21;97380.97;109795;1250;60539;-62
2022/03/05 06:42:41;;;;;;;46.70;23.60;;;;;;;-0.39;76.27;97387.84;109697;1251;60433;-63
2022/03/05 06:45:12;;;;;;;48.30;26.20;;;;;;;-0.31;76.25;97384.00;109760;1250;72410;-62
2022/03/05 06:47:41;;;;;;;58.30;28.80;;;;;;;-0.32;76.15;97384.36;109896;1250;67936;-62
2022/03/05 06:50:11;;;;;;;;;;;;;;;-0.32;76.17;97387.10;109941;1250;69433;-61
2022/03/05 06:52:40;;;;;;;43.70;23.00;;;;;;;-0.32;76.14;97386.42;109912;1250;60506;-60
2022/03/05 06:55:14;;;;;;;42.50;21.90;;;;;;;-0.25;75.76;97389.61;110070;1250;60430;-63
2022/03/05 06:57:44;;;;;;;36.40;19.70;;;;;;;-0.16;75.48;97389.52;109803;1250;72994;-65
2022/03/05 07:00:14;;;;;;;31.80;17.40;;;;;;;-0.07;75.12;97394.07;109942;1250;67861;-64
2022/03/05 07:02:44;;;;;;;49.70;28.20;;;;;;;-0.01;75.11;97394.39;109678;1250;70077;-62
2022/03/05 07:05:14;;;;;;;43.50;22.70;;;;;;;-0.07;74.85;97399.55;109725;1250;60507;-62
2022/03/05 07:07:43;;;;;;;34.60;18.90;;;;;;;0.05;74.77;97402.44;109805;1250;60542;-61
2022/03/05 07:10:13;;;;;;;44.60;24.50;;;;;;;0.15;74.63;97400.77;109823;1250;72369;-64
2022/03/05 07:12:42;;;;;;;44.50;25.60;;;;;;;0.12;74.08;97406.14;109885;1250;67926;-61
2022/03/05 07:15:11;;;;;;;35.90;20.60;;;;;;;0.10;74.23;97406.02;109687;1250;68770;-64
2022/03/05 07:17:51;;;;;;;42.80;25.90;;;;;;;0.19;74.20;97404.39;109859;1250;60468;-66
2022/03/05 07:20:22;;;;;;;45.10;27.50;;;;;;;0.14;73.74;97408.85;109968;1250;60516;-64
2022/03/05 07:22:51;;;;;;;46.10;23.30;;;;;;;0.10;74.05;97407.77;109921;1250;71558;-63
2022/03/05 07:25:20;;;;;;;46.50;25.10;;;;;;;0.15;74.46;97407.94;109875;1250;67860;-63
2022/03/05 07:27:49;;;;;;;41.10;24.00;;;;;;;0.22;74.54;97409.43;109942;1250;69435;-64
2022/03/05 07:30:19;;;;;;;42.30;24.00;;;;;;;0.26;74.20;97410.67;109890;1250;60487;-65
2022/03/05 07:32:48;;;;;;;44.70;25.40;;;;;;;0.25;74.52;97410.19;109713;1250;60486;-62
2022/03/05 07:35:16;;;;;;;46.80;26.70;;;;;;;0.25;74.13;97411.92;109719;1251;71867;-65
2022/03/05 07:37:46;;;;;;;42.60;24.60;;;;;;;0.29;73.87;97413.00;109823;1250;67834;-62
2022/03/05 07:40:18;;;;;;;35.30;19.70;;;;;;;0.39;73.61;97415.40;109814;1250;69724;-63
2022/03/05 07:42:48;;;;;;;42.80;23.60;;;;;;;0.57;73.33;97418.78;109881;1250;61072;-62
2022/03/05 07:45:18;;;;;;;44.10;25.80;;;;;;;0.70;73.24;97416.46;109962;1249;60539;-61
2022/03/05 07:47:47;;;;;;;48.50;26.10;;;;;;;0.81;73.12;97414.20;109870;1250;71589;-61
2022/03/05 07:50:16;;;;;;;44.70;25.10;;;;;;;0.92;72.61;97417.23;109805;1250;68165;-64
2022/03/05 07:52:46;;;;;;;33.50;18.90;;;;;;;1.01;72.30;97420.53;109722;1250;69351;-66
2022/03/05 07:55:15;;;;;;;39.70;22.70;;;;;;;1.16;72.37;97420.58;109845;1250;60523;-63
2022/03/05 07:57:44;;;;;;;47.70;26.70;;;;;;;1.29;72.06;97426.25;109953;1250;60439;-64
2022/03/05 08:00:14;;;;;;;36.80;22.30;;;;;;;1.37;71.18;97427.17;110061;1250;74245;-63
2022/03/05 08:02:51;;;;;;;67.20;40.40;;;;;;;1.51;71.17;97430.30;109834;1250;67916;-63
2022/03/05 08:05:21;;;;;;;51.00;30.80;;;;;;;1.61;71.21;97430.59;109805;1250;68696;-65
2022/03/05 08:07:52;;;;;;;65.00;39.30;;;;;;;1.69;70.81;97430.14;109794;1250;60558;-62
2022/03/05 08:10:21;;;;;;;46.90;26.30;;;;;;;1.53;70.09;97430.02;109826;1250;60556;-61
2022/03/05 08:12:51;;;;;;;39.70;23.00;;;;;;;1.55;70.19;97431.16;109900;1250;71637;-65
2022/03/05 08:15:20;;;;;;;50.00;31.30;;;;;;;1.65;70.86;97433.71;110002;1249;67883;-63
2022/03/05 08:17:51;;;;;;;37.70;24.60;;;;;;;1.71;71.08;97438.64;109887;1250;68799;-63
2022/03/05 08:20:22;;;;;;;47.00;26.20;;;;;;;1.83;70.81;97437.36;109856;1250;60493;-64
2022/03/05 08:22:52;;;;;;;47.70;27.70;;;;;;;1.93;70.32;97442.30;109868;1250;60552;-61
2022/03/05 08:25:22;;;;;;;45.50;26.10;;;;;;;2.00;70.62;97440.48;109792;1250;72232;-67
2022/03/05 08:27:51;;;;;;;32.10;19.10;;;;;;;2.06;70.66;97442.66;109778;1250;67998;-64
2022/03/05 08:30:21;;;;;;;33.20;20.10;;;;;;;2.19;70.10;97443.89;109994;1250;69439;-59
2022/03/05 08:32:51;;;;;;;34.00;21.30;;;;;;;2.30;69.66;97449.82;109846;1250;60552;-61
2022/03/05 08:35:21;;;;;;;44.40;25.50;;;;;;;2.39;68.94;97447.58;109954;1250;60503;-61
2022/03/05 08:37:50;;;;;;;48.60;28.20;;;;;;;2.44;68.89;97452.38;109776;1250;72498;-61
2022/03/05 08:40:20;;;;;;;38.40;21.40;;;;;;;2.50;69.00;97448.69;109941;1250;68617;-65
2022/03/05 08:42:50;;;;;;;32.90;19.90;;;;;;;2.60;68.97;97449.49;109927;1250;68640;-64
2022/03/05 08:45:19;;;;;;;38.50;20.70;;;;;;;2.70;68.77;97447.18;109861;1250;60564;-64
2022/03/05 08:47:48;;;;;;;37.90;21.40;;;;;;;2.81;68.15;97446.21;109870;1250;60492;-65
2022/03/05 08:50:17;;;;;;;36.00;21.40;;;;;;;2.89;67.06;97448.14;109794;1249;73140;-65
2022/03/05 08:52:47;;;;;;;31.70;18.70;;;;;;;2.89;66.92;97451.09;109790;1250;67990;-61
2022/03/05 08:55:17;;;;;;;37.50;21.80;;;;;;;2.96;66.87;97451.64;109850;1249;69019;-61
2022/03/05 08:57:46;;;;;;;41.10;23.50;;;;;;;2.97;65.98;97450.88;109948;1250;60619;-58
2022/03/05 09:00:16;;;;;;;30.00;18.70;;;;;;;3.02;66.14;97455.17;109898;1250;60504;-61
2022/03/05 09:02:46;;;;;;;33.00;19.80;;;;;;;3.14;66.40;97456.39;109869;1250;71684;-61
2022/03/05 09:05:15;;;;;;;36.40;21.30;;;;;;;3.27;65.71;97456.85;109798;1250;68062;-64
2022/03/05 09:07:45;;;;;;;37.50;24.20;;;;;;;3.35;64.53;97461.00;109790;1249;69379;-63
2022/03/05 09:10:14;;;;;;;46.80;27.70;;;;;;;3.37;64.57;97462.99;109941;1250;60574;-64
2022/03/05 09:12:44;;;;;;;36.00;22.20;;;;;;;3.33;64.11;97465.20;109781;1250;60482;-63
2022/03/05 09:15:13;;;;;;;38.60;23.20;;;;;;;3.29;64.12;97466.09;109867;1250;72386;-63
2022/03/05 09:17:42;;;;;;;43.90;25.20;;;;;;;3.22;64.22;97466.21;109695;1251;68825;-64
2022/03/05 09:20:11;;;;;;;44.20;25.50;;;;;;;3.24;64.21;97471.79;109835;1250;68656;-65
2022/03/05 09:22:40;;;;;;;38.50;22.90;;;;;;;3.16;64.17;97470.77;109763;1251;60553;-61
2022/03/05 09:25:10;;;;;;;37.20;22.70;;;;;;;3.16;64.28;97472.52;109710;1251;60528;-62
2022/03/05 09:27:42;;;;;;;37.40;22.50;;;;;;;3.26;63.65;97469.69;109914;1250;72954;-62
2022/03/05 09:30:12;;;;;;;40.90;23.70;;;;;;;3.06;64.57;97473.95;109883;1250;67954;-61
2022/03/05 09:32:43;;;;;;;46.60;26.70;;;;;;;3.29;64.48;97473.31;109910;1250;68832;-60
2022/03/05 09:35:13;;;;;;;36.40;22.40;;;;;;;3.55;63.44;97474.93;109598;1250;60483;-63
2022/03/05 09:37:42;;;;;;;35.50;20.70;;;;;;;3.99;62.75;97477.50;109798;1250;60519;-63
2022/03/05 09:40:12;;;;;;;43.30;25.60;;;;;;;4.54;61.75;97478.36;109991;1249;72312;-61
2022/03/05 09:42:44;;;;;;;42.60;25.90;;;;;;;4.87;60.43;97474.02;109836;1250;67639;-59
2022/03/05 09:45:14;;;;;;;37.70;23.80;;;;;;;5.15;59.82;97469.70;109918;1250;69474;-63
2022/03/05 09:47:45;;;;;;;35.70;22.10;;;;;;;5.48;59.23;97473.39;109875;1250;60489;-60
2022/03/05 09:50:14;;;;;;;37.50;23.40;;;;;;;5.70;57.79;97476.20;109834;1250;60424;-62
2022/03/05 09:52:44;;;;;;;37.90;23.00;;;;;;;5.76;56.87;97473.16;109918;1250;72650;-67
2022/03/05 09:55:13;;;;;;;42.00;27.60;;;;;;;5.79;56.25;97474.00;109773;1250;68114;-64
2022/03/05 09:57:42;;;;;;;35.50;21.50;;;;;;;5.68;56.64;97474.60;109853;1250;69518;-61
2022/03/05 10:00:13;;;;;;;36.20;21.60;;;;;;;6.06;55.30;97475.39;109837;1250;60502;-64
2022/03/05 10:02:45;;;;;;;36.90;23.30;;;;;;;6.47;56.62;97475.39;109852;1250;60499;-66
2022/03/05 10:05:16;;;;;;;40.50;27.00;;;;;;;6.89;54.72;97473.56;109849;1250;70753;-62
2022/03/05 10:08:16;;;;;;;;;;;;;;;6.92;51.87;97472.70;109786;1250;68666;-62
2022/03/05 10:10:49;;;;;;;37.30;20.90;;;;;;;6.86;50.28;97471.86;109836;1250;68728;-63
2022/03/05 10:13:25;;;;;;;30.20;20.30;;;;;;;7.30;50.98;97474.13;109784;1250;60538;-60
2022/03/05 10:15:59;;;;;;;29.50;18.40;;;;;;;7.43;49.24;97473.19;109815;1250;60552;-62
2022/03/05 10:18:39;;;;;;;36.60;24.60;;;;;;;7.50;49.03;97470.91;109594;1253;71435;-63
2022/03/05 10:21:09;;;;;;;29.40;20.20;;;;;;;6.86;48.56;97472.17;109747;1251;68647;-61
2022/03/05 10:23:43;;;;;;;32.90;22.00;;;;;;;6.79;50.21;97471.35;109479;1253;69554;-62
2022/03/05 10:26:12;;;;;;;28.40;17.50;;;;;;;6.83;50.02;97468.73;109654;1251;60576;-62
2022/03/05 10:28:41;;;;;;;27.10;17.70;;;;;;;6.87;50.73;97468.65;109493;1253;60581;-63
2022/03/05 10:31:12;;;;;;;32.90;22.30;;;;;;;6.81;50.83;97468.65;109772;1251;71872;-63
2022/03/05 10:33:44;;;;;;;26.10;17.10;;;;;;;6.84;51.57;97469.69;109844;1250;68583;-62
2022/03/05 10:36:19;;;;;;;31.70;21.30;;;;;;;6.92;51.50;97466.32;109705;1252;68768;-62
2022/03/05 10:38:56;;;;;;;31.70;21.40;;;;;;;6.85;49.97;97467.05;109692;1250;60477;-63
2022/03/05 10:41:37;;;;;;;36.10;24.60;;;;;;;6.83;50.74;97463.35;109743;1250;60560;-63
2022/03/05 10:44:11;;;;;;;31.90;20.30;;;;;;;6.85;50.39;97461.88;109740;1250;72435;-65
2022/03/05 10:46:43;;;;;;;34.60;23.90;;;;;;;6.71;50.61;97463.34;109554;1253;69286;-62
2022/03/05 10:49:39;;;;;;;39.30;25.40;;;;;;;6.54;51.99;97461.34;109698;1251;69736;-64
2022/03/05 10:52:09;;;;;;;37.60;24.80;;;;;;;6.53;51.74;97462.05;109512;1254;60584;-62
2022/03/05 10:54:42;;;;;;;33.80;21.10;;;;;;;6.30;51.76;97464.59;109644;1253;60488;-63
2022/03/05 10:57:22;;;;;;;31.30;21.50;;;;;;;6.15;51.94;97463.98;109628;1253;71665;-63
2022/03/05 11:00:06;;;;;;;35.20;23.20;;;;;;;6.07;51.68;97460.81;109638;1253;68554;-63
2022/03/05 11:02:36;;;;;;;37.40;23.00;;;;;;;5.68;52.71;97461.98;109492;1253;68878;-64
2022/03/05 11:05:06;;;;;;;38.40;23.20;;;;;;;5.58;52.80;97460.08;109765;1250;60877;-65
2022/03/05 11:07:40;;;;;;;30.40;18.90;;;;;;;5.50;53.53;97456.53;109516;1252;60479;-63
2022/03/05 11:10:10;;;;;;;28.20;19.80;;;;;;;5.57;52.68;97458.77;109698;1251;71203;-63
2022/03/05 11:12:41;;;;;;;25.80;17.20;;;;;;;5.51;52.26;97454.20;109704;1250;67851;-64
2022/03/05 11:15:11;;;;;;;29.10;17.30;;;;;;;5.48;52.55;97453.16;109540;1251;69423;-63
2022/03/05 11:17:40;;;;;;;24.20;16.40;;;;;;;5.51;52.44;97450.94;109803;1250;60571;-64
2022/03/05 11:20:09;;;;;;;24.40;15.30;;;;;;;5.55;52.45;97448.14;109741;1250;60523;-63
2022/03/05 11:22:41;;;;;;;27.50;18.20;;;;;;;5.61;52.51;97449.00;109677;1251;72321;-64
2022/03/05 11:25:14;;;;;;;26.20;17.90;;;;;;;5.65;52.50;97450.06;109689;1252;68560;-67
2022/03/05 11:27:52;;;;;;;28.20;17.90;;;;;;;5.68;52.41;97449.70;109576;1250;68673;-65
2022/03/05 11:30:21;;;;;;;32.70;21.30;;;;;;;5.73;52.55;97447.21;109772;1251;60495;-64
2022/03/05 11:32:51;;;;;;;26.40;18.10;;;;;;;5.72;52.25;97445.52;109713;1251;60818;-65
2022/03/05 11:35:28;;;;;;;26.50;17.20;;;;;;;5.67;52.56;97443.58;109448;1253;72727;-67